This is the latest recevied weather packets stored in our database for station/object K4FB. If no packets are shown the sender has not sent any weather packets the latest 10 day(s).
| Time | Temp. | Humidity | Pressure | Rain* | Wind** | Luminosity | Snow |
|---|---|---|---|---|---|---|---|
| 1777953003 | 20° C | 80% | 1017 hPa | 0 mm | - | - | - |
| 1777949119 | 20.56° C | 76% | 1017 hPa | 0 mm | - | - | - |
| 1777947009 | 21.11° C | 73% | 1016.8 hPa | 0 mm | - | - | - |
| 1777941604 | 22.78° C | 68% | 1016.2 hPa | 0 mm | - | - | - |
| 1777941303 | 22.78° C | 68% | 1016.3 hPa | 0 mm | - | - | - |
| 1777940114 | 23.33° C | 68% | 1015.9 hPa | 0 mm | - | - | - |
| 1777939503 | 23.33° C | 66% | 1015.5 hPa | 0 mm | - | - | - |
| 1777939234 | 23.89° C | 66% | 1015.5 hPa | 0 mm | - | - | - |
| 1777938603 | 23.89° C | 65% | 1015.6 hPa | 0 mm | - | - | - |
| 1777936510 | 25.56° C | 61% | 1015.3 hPa | 0 mm | - | - | - |
| 1777934721 | 26.11° C | 59% | 1015.2 hPa | 0 mm | - | - | - |
| 1777934107 | 26.11° C | 58% | 1015.2 hPa | 0 mm | - | - | - |
| 1777933820 | 26.67° C | 57% | 1015.1 hPa | 0 mm | - | - | - |
| 1777933203 | 26.67° C | 56% | 1015.2 hPa | 0 mm | - | - | - |
| 1777930511 | 28.89° C | 53% | 1015 hPa | 0 mm | - | - | - |
| 1777928422 | 28.89° C | 50% | 1015 hPa | 0 mm | - | - | - |
| 1777927516 | 28.33° C | 54% | 1015.1 hPa | 0 mm | - | - | - |
| 1777923020 | 28.89° C | 51% | 1015.8 hPa | 0 mm | - | - | - |
| 1777920322 | 30° C | 51% | 1016.2 hPa | 0 mm | - | - | - |
| 1777919109 | 30° C | 48% | 1016.6 hPa | 0 mm | - | - | - |
| 1777915505 | 28.89° C | 53% | 1017.2 hPa | 0 mm | - | - | - |
| 1777915204 | 28.89° C | 51% | 1017.2 hPa | 0 mm | - | - | - |
| 1777913404 | 28.33° C | 48% | 1017.7 hPa | 0 mm | - | - | - |
| 1777911310 | 27.78° C | 52% | 1018 hPa | 0 mm | - | - | - |
| 1777906821 | 26.11° C | 55% | 1018.4 hPa | 0 mm | - | - | - |
* Rain latest hour (hover to see other rain measurements)
** Current wind speed in m/s (hover to see current wind gust speed)